Alma, Kansas
Current Conditions -  °F | °C
As of 4:52 PM on Thursday 20 Nov 2014 (Local Time) from KMHK Reporting Station
Clear Clear  
Wind Chill: 32°   Ceiling: Unl
Heat Index: 38°   Visibility: 10mi
Dew Point: 19°   Wind: 8mph
Humidity: 47%   Direction: 90°E
Pressure: 30.16"   Gusts: NA
Location:  39.02°N, 96.29°W
Report Text: KMHK 202252Z 09007KT 10SM CLR 03/M07 A3016 RMK AO2 SLP224 T00331072
Loading
Personal Weather Stations






























Interactive Weather Map New forecast layout! Learn more

10-Day Weather Forecast

Advertisements
Track Severe Weather on mobile